createdAt,value
2017-09-09T00:00:09.976Z,6.20
2017-09-09T00:02:36.188Z,8.18
2017-09-09T00:05:03.370Z,7.90
2017-09-09T00:07:30.962Z,6.47
2017-09-09T00:09:58.548Z,6.25
2017-09-09T00:12:25.701Z,6.62
2017-09-09T00:14:53.214Z,6.05
2017-09-09T00:17:20.149Z,5.80
2017-09-09T00:19:56.136Z,6.93
2017-09-09T00:22:23.100Z,7.70
2017-09-09T00:24:50.287Z,7.15
2017-09-09T00:27:17.151Z,6.68
2017-09-09T00:29:44.643Z,6.30
2017-09-09T00:32:11.828Z,7.47
2017-09-09T00:34:38.043Z,6.40
2017-09-09T00:37:04.252Z,7.40
2017-09-09T00:39:31.995Z,4.87
2017-09-09T00:42:00.261Z,7.87
2017-09-09T00:44:26.756Z,6.80
2017-09-09T00:46:54.563Z,7.37
2017-09-09T00:49:21.832Z,7.07
2017-09-09T00:51:49.022Z,7.22
2017-09-09T00:54:15.281Z,7.70
2017-09-09T00:56:42.176Z,8.55
2017-09-09T00:59:09.731Z,6.57
2017-09-09T01:01:38.067Z,6.60
2017-09-09T01:04:04.936Z,8.25
2017-09-09T01:06:31.912Z,6.53
2017-09-09T01:08:59.344Z,6.35
2017-09-09T01:11:26.527Z,6.53
2017-09-09T01:13:53.188Z,5.55
2017-09-09T01:16:20.630Z,6.03
2017-09-09T01:18:47.870Z,5.68
2017-09-09T01:21:15.073Z,6.93
2017-09-09T01:23:42.748Z,6.75
2017-09-09T01:26:09.995Z,6.57
2017-09-09T01:28:37.464Z,6.60
2017-09-09T01:31:05.101Z,5.62
2017-09-09T01:33:32.012Z,7.68
2017-09-09T01:35:58.870Z,8.00
2017-09-09T01:38:25.751Z,7.68
2017-09-09T01:40:52.643Z,7.40
2017-09-09T01:43:19.438Z,6.55
2017-09-09T01:45:46.201Z,7.00
2017-09-09T01:48:13.470Z,7.10
2017-09-09T01:50:39.907Z,7.68
2017-09-09T01:53:06.435Z,6.70
2017-09-09T01:55:33.320Z,6.87
2017-09-09T01:57:59.857Z,7.28
2017-09-09T02:00:27.614Z,6.35
2017-09-09T02:02:54.579Z,6.47
2017-09-09T02:05:22.575Z,7.40
2017-09-09T02:07:55.898Z,5.75
2017-09-09T02:10:22.124Z,7.93
2017-09-09T02:12:49.473Z,7.25
2017-09-09T02:15:15.708Z,6.07
2017-09-09T02:17:42.474Z,6.60
2017-09-09T02:20:09.344Z,7.55
2017-09-09T02:22:36.481Z,7.50
2017-09-09T02:25:03.448Z,7.53
2017-09-09T02:27:30.670Z,6.40
2017-09-09T02:29:57.744Z,7.43
2017-09-09T02:32:24.008Z,6.97
2017-09-09T02:34:50.424Z,7.15
2017-09-09T02:37:16.657Z,6.53
2017-09-09T02:39:43.121Z,6.75
2017-09-09T02:42:11.455Z,7.87
2017-09-09T02:44:38.803Z,6.32
2017-09-09T02:47:05.488Z,7.40
2017-09-09T02:49:31.704Z,6.60
2017-09-09T02:51:58.468Z,7.50
2017-09-09T02:54:24.933Z,5.60
2017-09-09T02:56:52.955Z,6.15
2017-09-09T02:59:19.820Z,5.90
2017-09-09T03:01:47.093Z,6.55
2017-09-09T03:04:14.918Z,6.10
2017-09-09T03:06:41.930Z,7.22
2017-09-09T03:09:09.485Z,6.62
2017-09-09T03:11:37.045Z,6.15
2017-09-09T03:14:03.912Z,5.70
2017-09-09T03:16:32.665Z,5.57
2017-09-09T03:18:59.336Z,6.00
2017-09-09T03:21:25.543Z,5.28
2017-09-09T03:23:52.441Z,6.75
2017-09-09T03:26:19.403Z,5.43
2017-09-09T03:28:47.277Z,6.43
2017-09-09T03:31:15.567Z,4.30
2017-09-09T03:33:43.261Z,6.95
2017-09-09T03:36:09.467Z,6.18
2017-09-09T03:38:36.007Z,7.10
2017-09-09T03:41:02.216Z,7.30
2017-09-09T03:43:28.402Z,4.78
2017-09-09T03:45:56.910Z,5.82
2017-09-09T03:48:23.667Z,5.85
2017-09-09T03:50:50.158Z,6.20
2017-09-09T03:53:17.257Z,6.55
2017-09-09T03:55:44.117Z,5.80
2017-09-09T03:58:11.860Z,7.60
2017-09-09T04:00:39.601Z,6.53
2017-09-09T04:03:07.675Z,7.22
2017-09-09T04:05:34.132Z,6.95
2017-09-09T04:08:01.057Z,4.90
2017-09-09T04:10:27.820Z,6.12
2017-09-09T04:12:54.034Z,5.90
2017-09-09T04:15:20.779Z,7.07
2017-09-09T04:17:48.845Z,6.30
2017-09-09T04:20:16.120Z,5.68
2017-09-09T04:22:42.856Z,5.78
2017-09-09T04:25:09.449Z,4.90
2017-09-09T04:27:36.369Z,6.62
2017-09-09T04:30:03.158Z,5.50
2017-09-09T04:32:29.376Z,5.97
2017-09-09T04:34:57.790Z,6.43
2017-09-09T04:37:23.997Z,6.00
2017-09-09T04:39:50.207Z,7.25
2017-09-09T04:42:17.021Z,6.15
2017-09-09T04:44:43.524Z,6.85
2017-09-09T04:47:10.279Z,5.82
2017-09-09T04:49:37.780Z,6.72
2017-09-09T04:52:04.761Z,5.95
2017-09-09T04:54:32.206Z,5.93
2017-09-09T04:56:58.436Z,5.80
2017-09-09T04:59:25.312Z,6.93
2017-09-09T05:01:53.108Z,7.50
2017-09-09T05:04:20.068Z,5.25
2017-09-09T05:06:46.857Z,7.97
2017-09-09T05:09:14.565Z,6.55
2017-09-09T05:11:43.183Z,5.50
2017-09-09T05:14:10.919Z,5.72
2017-09-09T05:16:37.121Z,4.75
2017-09-09T05:19:04.372Z,6.47
2017-09-09T05:21:31.892Z,4.82
2017-09-09T05:23:58.089Z,6.12
2017-09-09T05:26:24.312Z,9.52
2017-09-09T05:28:51.300Z,9.35
2017-09-09T05:31:18.182Z,8.10
2017-09-09T05:33:46.394Z,7.30
2017-09-09T05:36:12.607Z,6.85
2017-09-09T05:38:40.701Z,6.68
2017-09-09T05:41:07.724Z,7.28
2017-09-09T05:43:33.935Z,6.30
2017-09-09T05:46:00.876Z,9.05
2017-09-09T05:48:28.336Z,11.93
2017-09-09T05:50:56.000Z,7.97
2017-09-09T05:53:22.241Z,10.30
2017-09-09T05:55:48.688Z,8.50
2017-09-09T05:58:14.930Z,8.90
2017-09-09T06:00:41.157Z,9.35
2017-09-09T06:03:07.612Z,10.35
2017-09-09T06:05:34.288Z,9.02
2017-09-09T06:08:00.528Z,9.35
2017-09-09T06:10:26.731Z,8.13
2017-09-09T06:12:54.358Z,9.05
2017-09-09T06:15:20.648Z,7.78
2017-09-09T06:17:47.495Z,7.45
2017-09-09T06:20:13.726Z,8.40
2017-09-09T06:22:39.946Z,9.43
2017-09-09T06:25:06.197Z,8.40
2017-09-09T06:27:32.408Z,8.00
2017-09-09T06:29:58.705Z,7.93
2017-09-09T06:32:26.496Z,6.70
2017-09-09T06:34:52.734Z,5.97
2017-09-09T06:37:18.982Z,7.85
2017-09-09T06:39:47.136Z,9.50
2017-09-09T06:42:14.723Z,7.78
2017-09-09T06:44:40.963Z,6.70
2017-09-09T06:47:07.175Z,6.90
2017-09-09T06:49:33.944Z,7.03
2017-09-09T06:52:00.150Z,8.00
2017-09-09T06:54:26.998Z,7.43
2017-09-09T06:56:53.193Z,7.57
2017-09-09T06:59:19.426Z,8.70
2017-09-09T07:01:46.634Z,8.30
2017-09-09T07:04:13.601Z,7.27
2017-09-09T07:06:39.934Z,9.40
2017-09-09T07:09:07.166Z,8.57
2017-09-09T07:11:34.723Z,8.30
2017-09-09T07:14:01.109Z,8.30
2017-09-09T07:16:28.286Z,7.40
2017-09-09T07:21:28.572Z,7.90
2017-09-09T07:23:55.461Z,7.10
2017-09-09T07:26:21.921Z,7.70
2017-09-09T07:28:48.158Z,7.03
2017-09-09T07:31:21.076Z,7.00
2017-09-09T07:33:47.265Z,5.93
2017-09-09T07:36:13.751Z,7.20
2017-09-09T07:38:40.447Z,6.67
2017-09-09T07:41:08.258Z,6.70
2017-09-09T07:43:34.489Z,6.90
2017-09-09T07:46:01.192Z,7.30
2017-09-09T07:48:27.564Z,6.30
2017-09-09T07:50:55.236Z,6.83
2017-09-09T07:53:21.492Z,7.20
2017-09-09T07:55:48.170Z,6.13
2017-09-09T07:58:14.973Z,6.27
2017-09-09T08:00:41.850Z,7.30
2017-09-09T08:03:08.083Z,6.90
2017-09-09T08:05:34.441Z,7.70
2017-09-09T08:08:00.657Z,6.80
2017-09-09T08:10:27.730Z,7.43
2017-09-09T08:12:53.956Z,6.93
2017-09-09T08:15:20.202Z,7.00
2017-09-09T08:17:47.769Z,6.70
2017-09-09T08:20:13.998Z,6.00
2017-09-09T08:22:41.075Z,6.50
2017-09-09T08:25:09.299Z,6.43
2017-09-09T08:27:36.238Z,6.70
2017-09-09T08:30:03.196Z,6.97
2017-09-09T08:32:30.398Z,6.53
2017-09-09T08:34:57.118Z,6.30
2017-09-09T08:37:24.311Z,7.40
2017-09-09T08:39:51.383Z,6.40
2017-09-09T08:42:18.121Z,6.50
2017-09-09T08:44:45.076Z,6.23
2017-09-09T08:47:11.680Z,6.83
2017-09-09T08:49:38.016Z,6.50
2017-09-09T08:52:04.853Z,6.73
2017-09-09T08:54:31.090Z,6.40
2017-09-09T08:56:58.365Z,5.50
2017-09-09T08:59:25.393Z,6.30
2017-09-09T09:01:52.562Z,6.50
2017-09-09T09:04:19.735Z,6.03
2017-09-09T09:06:46.273Z,5.90
2017-09-09T09:09:13.656Z,6.70
2017-09-09T09:11:41.185Z,6.57
2017-09-09T09:14:07.398Z,6.00
2017-09-09T09:16:33.621Z,7.40
2017-09-09T09:18:59.834Z,6.60
2017-09-09T09:21:26.798Z,6.50
2017-09-09T09:23:54.355Z,6.07
2017-09-09T09:26:21.639Z,6.80
2017-09-09T09:28:49.233Z,5.73
2017-09-09T09:31:15.459Z,6.30
2017-09-09T09:33:41.654Z,6.30
2017-09-09T09:36:07.880Z,6.97
2017-09-09T09:38:34.097Z,6.90
2017-09-09T09:41:00.870Z,6.23
2017-09-09T09:43:28.516Z,6.50
2017-09-09T09:45:54.763Z,6.20
2017-09-09T09:48:21.516Z,6.50
2017-09-09T09:50:48.419Z,6.40
2017-09-09T09:53:15.018Z,5.10
2017-09-09T09:55:41.956Z,5.90
2017-09-09T09:58:08.740Z,6.30
2017-09-09T10:00:35.647Z,5.70
2017-09-09T10:03:03.192Z,7.40
2017-09-09T10:05:30.211Z,5.80
2017-09-09T10:07:57.568Z,5.77
2017-09-09T10:10:23.809Z,5.90
2017-09-09T10:12:50.218Z,5.37
2017-09-09T10:15:17.746Z,5.83
2017-09-09T10:17:43.943Z,5.90
2017-09-09T10:20:11.423Z,5.57
2017-09-09T10:22:37.689Z,5.00
2017-09-09T10:25:05.518Z,5.80
2017-09-09T10:27:31.779Z,5.77
2017-09-09T10:29:58.973Z,5.83
2017-09-09T10:32:25.974Z,5.50
2017-09-09T10:34:52.551Z,5.40
2017-09-09T10:37:20.470Z,5.33
2017-09-09T10:39:46.694Z,6.40
2017-09-09T10:42:13.252Z,5.67
2017-09-09T10:44:40.599Z,5.50
2017-09-09T10:47:06.823Z,5.13
2017-09-09T10:49:33.024Z,5.60
2017-09-09T10:51:59.546Z,7.53
2017-09-09T10:54:27.296Z,5.83
2017-09-09T10:56:54.391Z,7.63
2017-09-09T10:59:21.430Z,6.87
2017-09-09T11:01:47.649Z,7.43
2017-09-09T11:04:14.483Z,7.90
2017-09-09T11:06:41.419Z,5.80
2017-09-09T11:09:08.721Z,6.33
2017-09-09T11:11:34.933Z,6.50
2017-09-09T11:14:01.192Z,6.40
2017-09-09T11:16:27.404Z,5.63
2017-09-09T11:18:54.898Z,5.90
2017-09-09T11:21:21.864Z,6.00
2017-09-09T11:23:48.633Z,6.87
2017-09-09T11:26:15.350Z,6.23
2017-09-09T11:28:42.530Z,5.80
2017-09-09T11:31:10.610Z,6.67
2017-09-09T11:33:36.829Z,6.60
2017-09-09T11:36:03.501Z,6.20
2017-09-09T11:38:30.770Z,6.20
2017-09-09T11:40:58.731Z,6.47
2017-09-09T11:43:24.964Z,7.30
2017-09-09T11:45:52.456Z,5.73
2017-09-09T11:48:18.704Z,6.03
2017-09-09T11:50:45.526Z,6.50
2017-09-09T11:53:12.518Z,5.77
2017-09-09T11:55:40.090Z,5.50
2017-09-09T11:58:06.337Z,5.77
2017-09-09T12:00:33.098Z,5.80
2017-09-09T12:03:00.462Z,6.37
2017-09-09T12:05:27.449Z,5.43
2017-09-09T12:07:54.782Z,6.47
2017-09-09T12:10:20.978Z,6.20
2017-09-09T12:12:47.860Z,5.60
2017-09-09T12:15:21.231Z,6.43
2017-09-09T12:17:47.959Z,5.67
2017-09-09T12:20:14.177Z,5.77
2017-09-09T12:22:41.467Z,6.43
2017-09-09T12:25:08.748Z,5.97
2017-09-09T12:27:35.703Z,5.87
2017-09-09T12:30:02.665Z,4.97
2017-09-09T12:32:29.776Z,5.90
2017-09-09T12:34:56.263Z,5.50
2017-09-09T12:37:22.474Z,5.90
2017-09-09T12:39:48.710Z,5.57
2017-09-09T12:42:14.927Z,5.63
2017-09-09T12:44:41.157Z,5.40
2017-09-09T12:47:07.434Z,5.70
2017-09-09T12:49:34.282Z,5.60
2017-09-09T12:52:01.866Z,5.80
2017-09-09T12:54:28.814Z,5.77
2017-09-09T12:56:56.575Z,5.73
2017-09-09T12:59:24.336Z,6.90
2017-09-09T13:01:51.911Z,5.30
2017-09-09T13:04:18.864Z,5.03
2017-09-09T13:06:45.089Z,5.80
2017-09-09T13:09:11.316Z,5.70
2017-09-09T13:11:37.542Z,6.47
2017-09-09T13:14:03.759Z,5.50
2017-09-09T13:16:30.717Z,6.50
2017-09-09T13:18:57.111Z,5.83
2017-09-09T13:21:23.617Z,6.37
2017-09-09T13:23:49.993Z,6.30
2017-09-09T13:26:18.639Z,6.40
2017-09-09T13:28:44.839Z,5.90
2017-09-09T13:31:11.168Z,6.17
2017-09-09T13:33:37.941Z,5.97
2017-09-09T13:36:04.174Z,6.10
2017-09-09T13:38:30.995Z,6.10
2017-09-09T13:40:57.195Z,6.53
2017-09-09T13:43:23.686Z,5.23
2017-09-09T13:45:50.553Z,5.80
2017-09-09T13:48:17.517Z,18.20
2017-09-09T13:50:43.742Z,5.50
2017-09-09T13:53:09.956Z,5.97
2017-09-09T13:55:36.924Z,5.30
2017-09-09T13:58:03.471Z,4.80
2017-09-09T14:00:30.497Z,5.27
2017-09-09T14:02:56.988Z,5.20
2017-09-09T14:05:23.817Z,5.60
2017-09-09T14:07:50.283Z,4.97
2017-09-09T14:10:17.268Z,5.37
2017-09-09T14:12:43.994Z,5.97
2017-09-09T14:15:10.455Z,5.93
2017-09-09T14:17:45.326Z,5.33
2017-09-09T14:20:12.735Z,5.33
2017-09-09T14:22:39.944Z,5.87
2017-09-09T14:25:07.456Z,5.53
2017-09-09T14:27:34.468Z,4.57
2017-09-09T14:30:01.870Z,6.07
2017-09-09T14:32:28.665Z,6.00
2017-09-09T14:34:54.864Z,5.50
2017-09-09T14:37:21.938Z,5.40
2017-09-09T14:39:48.714Z,5.50
2017-09-09T14:42:15.213Z,5.20
2017-09-09T14:44:41.975Z,5.40
2017-09-09T14:47:08.189Z,5.80
2017-09-09T14:49:35.111Z,5.23
2017-09-09T14:52:03.777Z,5.63
2017-09-09T14:54:30.008Z,5.50
2017-09-09T14:56:56.373Z,5.30
2017-09-09T14:59:22.692Z,5.90
2017-09-09T15:01:50.257Z,6.20
2017-09-09T15:04:17.065Z,6.40
2017-09-09T15:06:43.804Z,5.97
2017-09-09T15:09:11.001Z,5.93
2017-09-09T15:11:37.273Z,6.40
2017-09-09T15:14:04.140Z,5.70
2017-09-09T15:16:31.103Z,6.20
2017-09-09T15:18:57.297Z,5.83
2017-09-09T15:21:23.895Z,6.10
2017-09-09T15:23:50.869Z,5.90
2017-09-09T15:26:17.091Z,5.13
2017-09-09T15:28:43.299Z,5.57
2017-09-09T15:31:09.525Z,5.10
2017-09-09T15:33:36.276Z,5.80
2017-09-09T15:36:02.820Z,5.27
2017-09-09T15:38:29.032Z,5.03
2017-09-09T15:40:56.527Z,6.30
2017-09-09T15:43:24.209Z,5.30
2017-09-09T15:45:51.389Z,6.43
2017-09-09T15:48:18.528Z,5.80
2017-09-09T15:50:46.272Z,5.70
2017-09-09T15:53:13.045Z,5.80
2017-09-09T15:55:39.265Z,5.37
2017-09-09T15:58:06.057Z,4.00
2017-09-09T16:00:33.243Z,3.63
2017-09-09T16:02:59.984Z,3.30
2017-09-09T16:05:26.752Z,2.63
2017-09-09T16:07:52.975Z,3.50
2017-09-09T16:10:19.290Z,3.43
2017-09-09T16:12:46.677Z,3.80
2017-09-09T16:15:13.046Z,3.93
2017-09-09T16:17:40.461Z,3.60
2017-09-09T16:20:06.663Z,3.67
2017-09-09T16:22:34.699Z,3.90
2017-09-09T16:25:02.241Z,3.73
2017-09-09T16:27:29.066Z,3.50
2017-09-09T16:29:56.061Z,4.00
2017-09-09T16:32:23.113Z,3.83
2017-09-09T16:34:49.321Z,4.27
2017-09-09T16:37:16.111Z,3.80
2017-09-09T16:39:43.053Z,3.80
2017-09-09T16:42:09.298Z,3.57
2017-09-09T16:44:36.257Z,3.90
2017-09-09T16:47:02.539Z,3.57
2017-09-09T16:49:28.764Z,3.37
2017-09-09T16:51:55.173Z,4.37
2017-09-09T16:54:21.815Z,4.13
2017-09-09T16:56:48.813Z,3.67
2017-09-09T16:59:16.057Z,3.17
2017-09-09T17:01:42.879Z,3.50
2017-09-09T17:04:09.212Z,3.30
2017-09-09T17:06:35.751Z,4.27
2017-09-09T17:09:02.589Z,3.50
2017-09-09T17:11:28.872Z,2.93
2017-09-09T17:13:55.205Z,4.20
2017-09-09T17:16:22.159Z,4.20
2017-09-09T17:18:48.363Z,5.00
2017-09-09T17:21:14.989Z,4.90
2017-09-09T17:23:41.462Z,4.60
2017-09-09T17:26:08.653Z,4.90
2017-09-09T17:28:34.884Z,4.40
2017-09-09T17:31:01.431Z,4.33
2017-09-09T17:33:27.696Z,4.07
2017-09-09T17:35:54.255Z,4.20
2017-09-09T17:38:20.569Z,4.17
2017-09-09T17:40:48.016Z,4.53
2017-09-09T17:43:14.996Z,4.57
2017-09-09T17:45:41.212Z,5.33
2017-09-09T17:48:08.238Z,5.13
2017-09-09T17:50:37.028Z,5.57
2017-09-09T17:53:04.521Z,4.30
2017-09-09T17:55:31.256Z,4.80
2017-09-09T17:57:57.517Z,4.03
2017-09-09T18:00:24.822Z,4.20
2017-09-09T18:02:51.420Z,4.30
2017-09-09T18:05:18.607Z,5.03
2017-09-09T18:07:44.796Z,5.00
2017-09-09T18:10:11.037Z,4.50
2017-09-09T18:12:38.828Z,4.80
2017-09-09T18:15:05.934Z,5.23
2017-09-09T18:17:32.916Z,4.57
2017-09-09T18:19:59.966Z,4.70
2017-09-09T18:22:26.484Z,5.03
2017-09-09T18:24:53.545Z,3.93
2017-09-09T18:27:19.799Z,4.03
2017-09-09T18:29:46.080Z,6.00
2017-09-09T18:32:13.086Z,3.87
2017-09-09T18:34:39.690Z,3.80
2017-09-09T18:37:05.915Z,3.33
2017-09-09T18:39:32.148Z,3.70
2017-09-09T18:41:58.377Z,3.70
2017-09-09T18:44:25.236Z,4.20
2017-09-09T18:46:51.962Z,4.17
2017-09-09T18:49:21.193Z,3.23
2017-09-09T18:51:47.665Z,3.70
2017-09-09T18:54:14.560Z,3.70
2017-09-09T18:56:40.764Z,4.30
2017-09-09T18:59:07.015Z,3.73
2017-09-09T19:01:33.244Z,4.00
2017-09-09T19:04:00.617Z,3.70
2017-09-09T19:06:27.945Z,3.40
2017-09-09T19:08:54.285Z,4.20
2017-09-09T19:11:20.494Z,3.80
2017-09-09T19:13:47.237Z,4.10
2017-09-09T19:16:13.830Z,4.63
2017-09-09T19:18:47.362Z,4.67
2017-09-09T19:21:13.592Z,4.80
2017-09-09T19:23:40.876Z,3.77
2017-09-09T19:26:07.219Z,4.57
2017-09-09T19:28:33.664Z,4.43
2017-09-09T19:31:00.489Z,3.80
2017-09-09T19:33:26.774Z,3.83
2017-09-09T19:35:53.142Z,3.83
2017-09-09T19:38:20.456Z,4.20
2017-09-09T19:40:47.498Z,4.20
2017-09-09T19:43:14.351Z,4.63
2017-09-09T19:45:40.752Z,4.60
2017-09-09T19:48:09.688Z,4.13
2017-09-09T19:50:35.882Z,3.63
2017-09-09T19:53:03.050Z,3.50
2017-09-09T19:55:29.286Z,4.63
2017-09-09T19:57:56.168Z,4.40
2017-09-09T20:00:22.391Z,4.30
2017-09-09T20:02:49.221Z,4.30
2017-09-09T20:05:15.433Z,4.30
2017-09-09T20:07:42.616Z,4.27
2017-09-09T20:10:09.797Z,3.37
2017-09-09T20:12:37.328Z,4.80
2017-09-09T20:15:04.277Z,3.93
2017-09-09T20:17:30.501Z,5.70
2017-09-09T20:19:56.763Z,5.60
2017-09-09T20:22:23.753Z,4.90
2017-09-09T20:24:50.005Z,4.40
2017-09-09T20:27:17.101Z,4.80
2017-09-09T20:29:44.215Z,4.33
2017-09-09T20:32:10.677Z,5.40
2017-09-09T20:34:36.894Z,5.97
2017-09-09T20:37:03.372Z,5.27
2017-09-09T20:39:30.385Z,5.70
2017-09-09T20:41:56.590Z,5.00
2017-09-09T20:44:23.575Z,6.00
2017-09-09T20:46:50.332Z,3.90
2017-09-09T20:49:17.148Z,5.10
2017-09-09T20:51:44.124Z,5.27
2017-09-09T20:54:11.161Z,4.90
2017-09-09T20:56:38.678Z,5.23
2017-09-09T20:59:05.807Z,4.83
2017-09-09T21:01:33.735Z,4.87
2017-09-09T21:04:00.953Z,5.23
2017-09-09T21:06:27.174Z,4.67
2017-09-09T21:08:54.063Z,5.20
2017-09-09T21:11:20.805Z,3.40
2017-09-09T21:13:47.020Z,3.47
2017-09-09T21:26:03.934Z,5.60
2017-09-09T21:28:30.794Z,4.80
2017-09-09T21:30:57.072Z,5.03
2017-09-09T21:33:23.365Z,4.93
2017-09-09T21:35:49.643Z,5.10
2017-09-09T21:38:16.495Z,5.40
2017-09-09T21:40:43.314Z,4.50
2017-09-09T21:43:10.053Z,6.20
2017-09-09T21:45:36.297Z,5.83
2017-09-09T21:48:03.478Z,5.13
2017-09-09T21:50:30.423Z,5.60
2017-09-09T21:52:57.373Z,5.73
2017-09-09T21:55:24.336Z,5.87
2017-09-09T21:57:50.697Z,5.40
2017-09-09T22:00:18.327Z,5.30
2017-09-09T22:02:45.140Z,6.30
2017-09-09T22:05:11.664Z,6.87
2017-09-09T22:07:37.851Z,6.50
2017-09-09T22:10:04.145Z,7.53
2017-09-09T22:12:31.806Z,8.00
2017-09-09T22:14:59.266Z,6.20
2017-09-09T22:17:25.597Z,6.90
2017-09-09T22:19:52.123Z,7.00
2017-09-09T22:22:21.681Z,6.97
2017-09-09T22:24:49.005Z,6.30
2017-09-09T22:27:15.769Z,7.50
2017-09-09T22:29:42.466Z,6.43
2017-09-09T22:32:10.453Z,7.10
2017-09-09T22:34:36.979Z,7.77
2017-09-09T22:37:04.460Z,7.20
2017-09-09T22:39:30.647Z,6.63
2017-09-09T22:41:57.648Z,6.03
2017-09-09T22:44:23.852Z,6.33
2017-09-09T22:46:50.329Z,6.83
2017-09-09T22:49:18.032Z,7.43
2017-09-09T22:51:45.767Z,6.97
2017-09-09T22:54:12.188Z,7.60
2017-09-09T22:56:40.526Z,6.47
2017-09-09T22:59:06.735Z,7.20
2017-09-09T23:01:34.365Z,7.53
2017-09-09T23:04:01.221Z,6.90
2017-09-09T23:06:29.328Z,6.83
2017-09-09T23:08:55.905Z,7.90
2017-09-09T23:11:22.735Z,8.00
2017-09-09T23:13:48.927Z,8.33
2017-09-09T23:16:15.168Z,8.20
2017-09-09T23:18:42.533Z,8.30
2017-09-09T23:21:15.945Z,8.57
2017-09-09T23:23:42.151Z,8.10
2017-09-09T23:26:08.377Z,6.60
2017-09-09T23:28:35.105Z,6.43
2017-09-09T23:31:01.845Z,6.23
2017-09-09T23:33:28.219Z,6.97
2017-09-09T23:35:55.036Z,6.23
2017-09-09T23:38:22.065Z,5.90
2017-09-09T23:40:48.911Z,5.80
2017-09-09T23:43:15.142Z,6.20
2017-09-09T23:45:41.924Z,7.07
2017-09-09T23:48:08.765Z,7.30
2017-09-09T23:50:35.960Z,6.90
2017-09-09T23:53:02.192Z,6.00
2017-09-09T23:55:29.018Z,6.73
2017-09-09T23:57:57.361Z,7.23
